Date,TemperatureHighF,TemperatureAvgF,TemperatureLowF,DewpointHighF,DewpointAvgF,DewpointLowF,HumidityHigh,HumidityAvg,HumidityLow,PressureMaxIn,PressureMinIn,WindSpeedMaxMPH,WindSpeedAvgMPH,GustSpeedMaxMPH,PrecipitationSumIn
2013-1-1,37.6,34.1,25.0,30.5,26.3,14.9,87,73,61,30.02,29.84,12,6,17,0.02
2013-1-2,32.4,25.1,15.8,19.0,15.9,11.8,87,68,55,30.19,30.00,13,4,18,0.01
2013-1-3,31.7,25.8,16.7,21.7,17.2,13.0,88,70,56,30.20,30.07,11,3,14,0.00
2013-1-4,36.1,32.8,29.9,24.6,22.8,20.3,75,66,60,30.09,29.97,14,6,22,0.00
2013-1-5,43.2,31.9,23.1,25.0,21.7,19.0,92,67,49,30.29,30.03,12,5,19,0.00
2013-1-6,45.1,36.3,27.9,31.0,28.9,25.0,90,75,57,30.21,29.98,13,3,17,0.00
2013-1-7,45.3,35.6,22.0,31.0,27.0,20.0,93,73,50,30.39,30.06,13,3,15,0.00
2013-1-8,46.7,28.9,18.0,33.0,24.5,16.0,93,85,55,30.40,30.34,7,1,11,0.00
2013-1-9,44.3,33.0,19.7,38.4,29.3,17.8,93,87,71,30.39,30.15,12,2,18,0.01
2013-1-10,49.4,39.1,29.2,33.1,28.9,25.0,89,68,46,30.53,30.25,16,4,22,0.01
2013-1-11,42.8,39.0,28.3,40.5,36.0,26.0,93,89,76,30.52,30.08,11,2,11,0.45
2013-1-12,45.1,41.5,37.0,43.2,39.5,35.0,94,92,91,30.16,30.08,6,1,7,0.00
2013-1-13,46.4,44.1,41.6,44.2,41.9,39.4,92,92,92,30.14,29.97,4,1,7,0.01
2013-1-14,57.6,47.5,37.8,52.1,41.9,32.8,94,82,59,30.28,29.85,13,4,17,0.07
2013-1-15,37.8,35.2,32.7,33.4,30.2,27.9,92,82,73,30.34,30.19,8,2,12,0.11
2013-1-16,34.4,32.3,31.4,32.9,30.8,29.9,94,94,91,30.20,29.80,6,0,7,0.31
2013-1-17,42.8,36.3,32.3,33.7,30.9,27.0,94,81,65,30.09,29.92,12,3,16,0.29
2013-1-18,32.3,27.1,20.8,27.9,15.9,8.0,84,63,41,30.46,29.99,18,5,25,0.00
2013-1-19,49.1,36.6,21.3,30.5,25.1,13.0,81,64,44,30.39,29.90,9,2,13,0.09
2013-1-20,52.3,39.4,27.2,33.8,23.9,11.9,86,56,30,30.04,29.71,25,7,31,0.00
2013-1-21,29.3,25.7,21.6,20.4,14.1,9.0,81,61,49,30.08,29.85,15,2,22,0.00
2013-1-22,23.5,16.5,10.7,10.4,1.0,-5.0,62,50,38,30.23,29.85,21,9,29,0.00
2013-1-23,19.7,10.9,2.9,3.2,-0.1,-5.0,87,62,39,30.26,30.18,14,5,22,0.00
2013-1-24,24.2,13.4,2.1,9.3,2.4,-1.6,90,64,34,30.45,30.13,19,6,26,0.00
2013-1-25,21.5,14.3,2.8,14.2,5.4,-2.0,89,68,49,30.44,30.07,13,2,16,0.00
2013-1-26,28.1,14.6,-0.4,13.7,6.4,-4.0,91,71,48,30.40,30.06,16,4,21,0.01
2013-1-27,36.5,19.4,4.3,18.1,10.7,0.9,89,71,40,30.55,30.39,12,2,17,0.01
2013-1-28,33.4,27.6,13.7,31.5,25.1,10.5,93,90,82,30.50,30.01,6,1,10,0.00
2013-1-29,51.8,41.5,33.4,45.9,38.6,31.6,94,90,78,30.14,30.01,7,2,10,0.21
2013-1-30,64.3,50.2,42.9,59.7,47.8,40.6,93,91,83,30.04,29.30,13,2,18,0.43
2013-1-31,60.3,41.0,26.5,58.0,30.2,11.0,94,66,43,29.79,29.04,27,10,44,1.12
2013-2-1,28.9,25.3,20.3,18.8,13.7,8.6,80,61,44,30.24,29.78,18,7,24,0.00
2013-2-2,25.6,20.3,15.1,19.7,11.7,6.0,92,70,50,30.30,30.04,14,3,17,0.00
2013-2-3,30.0,21.5,13.0,22.9,17.8,10.5,94,86,72,30.04,29.80,10,1,17,0.07
2013-2-4,29.2,23.4,19.2,19.8,13.9,11.2,85,67,50,30.00,29.83,14,5,20,0.00
2013-2-5,31.6,27.7,23.3,27.0,24.0,17.0,93,86,74,29.96,29.88,4,1,6,0.02
2013-2-6,38.4,30.6,21.9,27.3,22.7,13.8,94,74,53,30.34,29.91,16,4,22,0.03
2013-2-7,32.6,25.3,14.8,21.8,15.9,11.0,89,68,52,30.49,30.30,7,2,12,0.01
2013-2-8,34.2,31.9,29.4,31.8,28.7,21.5,93,88,72,30.30,29.68,9,5,14,0.07
2013-2-9,33.7,26.4,18.1,29.2,16.6,6.9,93,68,43,30.37,29.76,21,8,29,0.10
2013-2-10,43.0,23.1,3.1,19.5,11.2,-0.6,90,63,28,30.48,30.30,6,1,10,0.06
2013-2-11,40.5,34.8,29.5,38.6,31.8,19.0,94,89,64,30.31,29.66,6,1,9,0.06
2013-2-12,41.7,38.4,31.8,35.9,27.2,23.9,93,64,56,29.98,29.74,19,7,24,0.00
2013-2-13,44.2,32.7,19.1,31.1,26.3,17.0,93,78,53,29.95,29.67,5,1,8,0.00
2013-2-14,44.5,32.6,25.1,36.0,28.0,23.1,94,84,56,29.99,29.71,11,1,13,0.01
2013-2-15,53.4,38.9,24.6,37.1,30.2,22.9,93,73,41,30.00,29.91,15,3,21,0.11
2013-2-16,35.4,31.9,27.2,31.9,25.3,13.7,93,77,56,29.97,29.77,15,5,20,0.06
2013-2-17,30.9,24.7,17.0,14.4,8.3,1.8,58,50,38,30.06,29.73,28,11,33,0.06
2013-2-18,35.4,23.6,14.6,19.2,9.3,1.9,76,55,37,30.29,30.06,18,6,25,0.00
2013-2-19,40.2,32.7,22.1,37.7,27.0,15.2,93,80,61,30.18,29.69,14,2,20,0.41
2013-2-20,34.4,27.5,23.1,25.5,15.5,10.9,71,61,51,30.02,29.75,21,10,30,0.41
2013-2-21,35.3,26.7,20.5,18.8,15.3,11.0,76,62,49,30.31,30.00,19,9,25,0.00
2013-2-22,36.4,25.2,18.1,29.0,18.9,13.7,86,77,61,30.40,30.24,8,2,11,0.00
2013-2-23,42.1,37.8,32.9,40.0,35.8,29.0,93,92,86,30.24,29.81,6,2,11,0.16
2013-2-24,44.7,35.3,31.6,40.0,28.9,22.6,94,78,66,30.00,29.77,14,6,20,0.17
2013-2-25,42.7,33.9,24.5,32.5,26.9,22.0,93,76,61,30.24,30.00,13,3,15,0.00
2013-2-26,43.4,33.4,22.9,34.3,28.6,21.0,93,83,66,30.26,29.83,14,4,21,0.22
2013-2-27,46.4,41.8,35.0,44.1,38.5,32.9,93,88,78,29.84,29.50,14,5,28,0.24
2013-2-28,45.0,38.2,33.2,36.9,32.5,30.2,94,81,61,29.63,29.55,9,3,15,0.00
2013-3-1,44.2,36.9,30.9,32.7,29.5,25.0,92,75,61,29.81,29.62,16,6,20,0.00
2013-3-2,38.2,32.6,28.7,26.8,23.9,20.8,76,70,61,29.81,29.72,13,6,17,0.00
2013-3-3,36.9,30.2,26.7,23.2,20.0,17.5,72,66,55,29.80,29.71,15,8,21,0.00
2013-3-4,42.7,32.8,27.0,24.1,20.7,17.5,71,61,44,29.94,29.80,16,10,24,0.00
2013-3-5,51.6,37.1,29.6,30.2,25.4,21.9,87,64,40,30.02,29.94,17,4,23,0.00
2013-3-6,42.6,37.8,30.2,35.9,31.2,26.7,90,77,69,29.96,29.82,16,8,31,0.03
2013-3-7,45.2,37.6,31.5,33.8,29.2,25.5,92,72,54,30.09,29.95,17,8,24,0.01
2013-3-8,45.5,34.4,28.9,33.3,28.9,25.0,93,81,62,30.23,30.04,14,7,20,0.19
2013-3-9,61.9,40.7,26.7,34.3,25.8,21.3,89,59,24,30.31,30.20,10,3,13,0.00
2013-3-10,57.6,40.0,23.9,37.1,30.3,21.7,93,71,38,30.36,30.24,8,3,15,0.00
2013-3-11,56.4,44.8,35.9,47.7,39.8,32.7,93,84,59,30.31,30.03,9,3,13,0.00
2013-3-12,57.5,51.0,42.8,55.4,47.9,36.0,93,89,78,30.03,29.65,15,6,20,1.17
2013-3-13,48.5,40.9,31.9,36.8,31.2,23.0,89,70,45,29.90,29.80,18,6,21,0.86
2013-3-14,41.9,34.5,28.7,22.0,13.7,8.9,64,43,29,29.98,29.86,20,9,29,0.00
2013-3-15,45.7,36.7,26.0,32.2,22.2,12.4,65,56,45,30.00,29.71,14,6,20,0.00
2013-3-16,42.2,33.4,27.1,31.3,27.7,22.5,92,80,63,29.92,29.75,11,2,16,0.08
2013-3-17,37.6,31.2,24.8,29.5,22.8,18.9,93,72,50,30.30,29.91,13,4,21,0.01
2013-3-18,35.5,28.1,18.2,30.5,21.7,13.4,93,78,54,30.38,29.95,10,3,16,0.00
2013-3-19,49.3,38.0,32.7,39.0,31.6,18.8,93,80,47,29.95,29.68,16,4,24,0.67
2013-3-20,44.7,35.6,29.6,26.6,21.2,17.0,82,57,36,29.89,29.77,18,6,25,0.00
2013-3-21,39.8,32.7,27.5,28.6,20.6,14.2,91,63,38,29.83,29.63,14,6,20,0.00
2013-3-22,40.4,32.8,25.4,23.7,20.8,13.0,74,62,45,29.90,29.74,16,6,22,0.00
2013-3-23,46.5,37.0,30.2,24.6,21.6,19.0,70,55,37,29.95,29.85,17,7,23,0.00
2013-3-24,48.7,38.2,26.1,27.2,22.7,17.8,73,55,36,29.95,29.68,14,4,27,0.00
2013-3-25,38.9,35.8,33.4,35.7,30.9,26.0,93,83,64,29.68,29.47,11,3,14,0.13
2013-3-26,53.2,40.7,33.0,37.2,31.5,25.6,93,72,39,29.88,29.61,14,4,21,0.00
2013-3-27,52.8,39.9,25.4,33.8,28.7,21.9,89,66,35,30.01,29.88,17,5,23,0.00
2013-3-28,48.4,40.3,25.4,33.5,29.7,22.8,93,67,49,30.14,29.98,14,5,18,0.00
2013-3-29,54.2,43.5,29.3,33.2,29.9,24.8,86,60,41,30.16,30.08,16,4,20,0.00
2013-3-30,59.6,41.0,23.7,35.0,25.5,19.9,93,61,22,30.18,30.06,13,2,17,0.00
2013-3-31,57.9,41.2,25.3,43.4,33.3,21.6,93,76,40,30.11,29.69,14,3,20,0.16
2013-4-1,60.3,46.2,34.4,48.0,35.4,14.0,93,69,33,29.92,29.63,22,6,28,0.03
2013-4-2,42.9,32.6,22.5,21.1,15.5,12.0,76,51,30,30.09,29.92,20,6,26,0.00
2013-4-3,46.2,35.3,23.8,19.0,14.1,10.0,66,43,28,30.32,30.09,18,6,25,0.00
2013-4-4,54.7,40.0,22.4,30.0,20.7,14.0,76,48,31,30.39,30.06,11,3,15,0.00
2013-4-5,63.1,48.3,31.4,31.0,25.1,19.0,83,45,21,30.06,29.74,21,6,28,0.00
2013-4-6,53.9,42.0,30.6,25.0,17.9,13.0,60,40,21,30.29,30.02,14,5,22,0.00
2013-4-7,64.2,50.6,34.5,43.0,35.6,24.0,79,59,40,30.28,29.97,12,4,19,0.00
2013-4-8,77.5,60.1,37.9,50.7,45.3,36.0,92,62,28,30.07,29.93,10,2,17,0.00
2013-4-9,82.5,66.8,48.3,55.1,46.4,36.6,92,55,20,29.96,29.86,20,4,29,0.00
2013-4-10,86.0,66.9,54.4,61.6,54.3,47.1,92,67,38,29.92,29.76,21,3,31,0.76
2013-4-11,59.7,55.4,47.2,56.9,51.4,42.8,92,87,74,29.98,29.75,11,4,17,0.01
2013-4-12,47.2,43.4,41.4,43.2,40.6,39.0,93,90,78,29.95,29.70,14,5,22,0.42
2013-4-13,57.8,46.9,36.2,42.5,37.9,34.0,93,73,47,29.96,29.74,14,3,18,0.10
2013-4-14,59.9,48.7,36.8,41.2,35.2,30.0,92,63,35,30.18,29.95,16,4,21,0.00
2013-4-15,62.4,50.5,39.4,44.2,35.8,29.8,82,58,45,30.34,30.18,11,3,15,0.00
2013-4-16,70.2,58.3,46.3,58.8,50.0,37.3,88,74,62,30.33,30.08,9,3,13,0.00
2013-4-17,75.0,61.2,49.6,57.1,43.7,33.3,91,58,23,30.26,30.09,11,3,15,0.00
2013-4-18,57.2,51.0,40.7,52.1,45.7,37.8,92,82,64,30.29,30.05,11,4,17,0.00
2013-4-19,77.8,64.8,53.6,67.7,59.9,50.0,92,85,65,30.05,29.57,20,4,31,0.83
2013-4-20,56.6,49.5,41.4,50.6,35.7,23.6,91,61,38,30.31,29.69,18,8,24,0.10
2013-4-21,58.0,44.2,32.7,32.2,25.9,20.0,75,50,28,30.60,30.31,13,4,18,0.00
2013-4-22,55.6,42.9,29.0,38.4,32.6,26.9,92,69,47,30.62,30.46,13,3,18,0.00
2013-4-23,49.7,43.3,34.7,42.3,37.0,32.3,92,78,67,30.46,30.12,7,3,12,0.00
2013-4-24,73.2,53.6,31.1,56.4,45.6,29.0,93,76,52,30.12,29.78,9,2,16,0.00
2013-4-25,63.9,52.2,37.0,56.4,33.5,24.9,83,52,26,30.25,29.84,19,6,27,0.00
2013-4-26,67.4,48.9,30.3,39.8,32.0,23.7,92,59,20,30.40,30.25,13,3,16,0.00
2013-4-27,71.3,52.4,30.8,40.9,34.7,28.3,92,57,26,30.42,30.24,10,1,20,0.00
2013-4-28,72.0,55.7,35.3,47.6,39.1,32.2,92,58,34,30.29,30.15,9,2,14,0.00
2013-4-29,54.2,51.9,50.5,50.3,48.6,38.7,92,89,56,30.21,30.13,13,3,17,0.13
2013-4-30,66.7,55.6,40.3,51.5,42.8,23.0,92,67,26,30.31,30.17,11,2,15,0.00
2013-5-1,70.2,52.2,31.6,46.0,36.6,29.0,92,61,23,30.46,30.31,9,2,15,0.00
2013-5-2,74.8,55.2,32.3,51.9,41.9,30.0,92,66,33,30.45,30.30,8,1,12,0.00
2013-5-3,67.5,56.4,42.9,43.8,40.4,33.2,87,58,29,30.42,30.31,10,3,16,0.00
2013-5-4,72.2,54.3,34.1,47.7,41.0,31.8,92,66,33,30.35,30.18,8,2,16,1.06
2013-5-5,67.5,52.3,36.9,47.2,41.3,34.4,91,69,37,30.27,30.17,8,2,12,0.00
2013-5-6,71.0,54.6,35.6,57.0,47.1,33.2,92,77,55,30.24,30.11,6,2,12,0.00
2013-5-7,74.5,60.0,42.1,60.0,52.1,39.7,92,77,56,30.15,30.05,7,2,14,0.01
2013-5-8,69.8,61.2,56.2,63.4,57.8,53.0,92,89,73,30.07,29.90,8,2,13,1.69
2013-5-9,69.7,59.6,53.5,61.4,54.7,50.6,92,84,64,29.96,29.88,7,1,9,0.05
2013-5-10,79.4,64.0,47.5,63.8,55.7,44.9,92,77,46,30.00,29.87,11,1,14,0.14
2013-5-11,72.0,64.1,56.9,66.0,60.8,54.3,92,89,76,29.90,29.67,9,1,13,0.60
2013-5-12,63.6,56.9,47.1,54.4,42.0,28.6,93,61,33,29.94,29.66,18,6,28,0.01
2013-5-13,54.6,45.3,33.9,36.1,32.0,28.2,92,62,39,30.12,29.94,12,4,21,0.00
2013-5-14,61.9,45.6,29.3,38.3,31.3,25.3,93,63,26,30.15,30.01,10,2,16,0.00
2013-5-15,74.6,57.7,37.8,60.3,49.4,35.0,92,75,57,30.06,29.67,9,1,12,0.00
2013-5-16,84.3,65.2,49.5,62.3,53.0,43.8,92,70,27,29.84,29.70,14,2,18,0.00
2013-5-17,74.8,61.9,47.6,49.9,43.9,40.6,88,54,30,30.18,29.84,12,4,15,0.00
2013-5-18,64.0,56.3,46.7,56.6,51.3,43.8,92,84,66,30.27,30.18,4,1,8,0.01
2013-5-19,61.9,57.6,54.7,58.9,55.1,52.4,92,91,87,30.27,30.14,8,2,13,0.13
2013-5-20,79.6,66.4,56.8,69.2,61.4,54.2,93,84,68,30.16,29.94,7,1,10,0.00
2013-5-21,87.9,72.1,57.4,74.7,65.5,54.6,92,81,60,29.96,29.82,9,1,13,0.00
2013-5-22,87.2,73.6,61.7,75.5,67.7,58.8,92,83,63,29.89,29.78,9,1,10,0.01
2013-5-23,78.4,69.1,62.4,71.6,65.6,59.9,92,89,72,29.86,29.72,11,1,14,2.34
2013-5-24,62.5,52.7,43.3,59.8,49.2,40.3,92,88,76,29.99,29.68,16,6,25,0.20
2013-5-25,58.3,49.0,43.1,43.8,40.2,34.0,92,73,47,30.03,29.94,20,8,34,0.21
2013-5-26,68.2,55.7,43.1,43.4,38.7,34.6,85,55,31,30.20,30.00,16,7,24,0.00
2013-5-27,73.3,55.2,33.9,49.6,41.7,31.8,93,66,30,30.25,30.12,10,2,14,0.00
2013-5-28,58.6,53.9,44.7,55.9,51.2,42.0,92,91,82,30.20,30.10,6,0,10,0.25
2013-5-29,85.7,69.0,56.8,73.5,62.5,53.9,92,81,58,30.11,29.98,8,1,12,0.01
2013-5-30,91.0,76.2,60.3,71.7,65.2,57.5,92,72,41,30.12,30.04,8,1,12,0.00
2013-5-31,91.7,76.7,61.3,74.5,65.1,58.3,91,71,38,30.10,29.97,7,1,12,0.00
2013-6-1,90.7,76.5,60.1,75.0,67.3,57.3,92,75,52,30.00,29.87,8,1,12,0.00
2013-6-2,85.7,77.1,69.5,73.9,69.7,66.0,91,79,61,29.88,29.74,11,2,17,0.19
2013-6-3,82.3,71.7,63.1,69.6,64.6,51.6,92,79,56,29.89,29.77,9,2,12,0.22
2013-6-4,77.2,63.6,50.7,53.3,48.1,43.4,90,60,31,30.10,29.89,10,4,15,0.01
2013-6-5,75.8,61.9,44.3,54.6,48.9,42.1,92,66,39,30.19,30.07,5,1,8,0.00
2013-6-6,70.0,60.4,50.1,60.4,55.1,47.6,92,83,58,30.12,29.96,8,2,14,0.24
2013-6-7,63.7,61.2,59.1,61.3,58.7,56.5,92,91,91,29.96,29.61,11,2,14,1.70
2013-6-8,76.8,66.0,57.4,66.5,60.9,54.7,93,84,63,30.05,29.61,12,3,15,0.08
2013-6-9,81.7,67.7,52.4,67.0,59.3,49.8,92,77,47,30.16,30.05,7,1,12,0.01
2013-6-10,69.2,65.0,61.3,65.8,62.3,58.6,92,91,89,30.13,29.76,7,1,12,1.12
2013-6-11,78.5,71.9,66.1,68.9,65.6,61.6,92,81,64,29.76,29.64,15,4,25,0.03
2013-6-12,81.3,70.5,60.0,61.8,58.6,55.1,91,68,43,29.83,29.71,13,4,20,0.00
2013-6-13,64.5,60.9,56.2,61.2,58.4,54.2,93,92,88,29.82,29.42,11,2,15,1.23
2013-6-14,76.2,61.2,53.8,63.5,55.4,50.5,93,82,57,29.91,29.53,16,3,21,0.10
2013-6-15,80.2,65.1,49.9,63.6,55.6,47.4,93,74,43,30.01,29.91,9,2,14,0.01
2013-6-16,80.4,66.9,52.8,67.0,59.4,50.3,92,78,53,29.99,29.77,10,2,22,0.00
2013-6-17,86.0,71.5,59.0,72.0,63.6,56.0,92,78,42,29.90,29.81,9,2,16,0.00
2013-6-18,84.5,68.3,58.0,73.0,63.5,55.4,92,86,57,29.89,29.78,6,1,12,0.36
2013-6-19,80.5,66.8,55.2,59.7,55.1,49.6,92,70,37,30.14,29.87,10,2,21,0.00
2013-6-20,81.0,66.2,49.6,65.0,57.4,47.0,92,75,49,30.24,30.14,8,1,12,0.00
2013-6-21,83.6,68.8,51.9,65.5,58.6,49.6,92,73,46,30.28,30.20,6,1,8,0.00
2013-6-22,84.7,69.9,52.9,70.0,62.5,50.0,92,79,57,30.24,30.09,7,1,12,0.00
2013-6-23,87.4,74.6,59.6,74.9,67.7,56.8,92,80,60,30.17,30.03,7,1,10,0.00
2013-6-24,90.4,76.0,66.7,75.7,69.0,62.4,91,80,53,30.06,29.94,11,1,17,0.15
2013-6-25,89.5,75.1,62.7,77.1,68.5,59.7,92,81,58,29.99,29.80,10,2,15,0.09
2013-6-26,86.7,75.8,66.7,72.4,68.3,63.8,91,79,58,29.85,29.76,10,2,13,0.01
2013-6-27,88.3,75.3,63.8,75.0,68.7,60.9,92,81,58,29.80,29.50,10,1,16,1.08
2013-6-28,85.4,75.4,67.1,73.7,69.3,64.2,92,82,62,29.52,29.44,9,2,16,0.05
2013-6-29,84.9,73.7,63.4,71.8,66.1,60.7,92,79,55,29.67,29.46,7,1,12,0.01
2013-6-30,83.3,73.8,63.9,76.1,69.0,61.0,92,86,71,29.87,29.67,6,1,12,0.00
2013-7-1,78.4,73.9,69.9,74.2,71.0,66.8,92,91,85,29.99,29.84,7,1,10,0.66
2013-7-2,84.3,76.7,72.4,77.3,72.5,69.9,92,87,73,30.14,29.99,7,1,10,0.04
2013-7-3,84.5,76.7,70.8,76.9,72.4,68.0,92,87,74,30.21,30.13,7,1,12,0.00
2013-7-4,88.6,78.6,70.1,77.7,72.7,67.3,92,83,66,30.23,30.12,8,1,16,0.00
2013-7-5,90.5,79.9,68.4,78.5,72.8,65.7,92,80,59,30.18,30.06,6,1,12,0.01
2013-7-6,91.8,80.2,68.6,80.4,73.4,65.9,92,81,55,30.12,30.00,8,1,12,0.00
2013-7-7,91.7,79.4,69.2,79.8,72.7,66.5,92,81,60,30.05,29.91,15,1,22,0.04
2013-7-8,87.2,74.8,67.0,75.0,69.3,64.6,92,84,60,30.03,29.95,9,2,18,0.12
2013-7-9,86.9,73.4,63.3,77.2,68.7,60.6,93,86,67,30.05,29.97,8,1,20,0.42
2013-7-10,86.8,77.1,68.4,76.9,72.2,65.7,92,85,67,30.00,29.79,8,1,13,0.00
2013-7-11,86.3,76.7,69.1,73.8,70.7,64.0,92,83,61,29.91,29.78,6,1,8,0.00
2013-7-12,78.3,71.0,64.4,70.5,66.6,62.0,93,86,73,30.05,29.90,8,1,12,0.11
2013-7-13,86.4,74.2,67.3,78.5,70.6,65.1,93,89,73,30.26,30.05,5,1,8,0.07
2013-7-14,90.2,79.7,70.7,78.3,73.4,68.0,92,82,61,30.32,30.22,7,1,10,0.01
2013-7-15,95.4,80.7,66.8,80.6,73.1,64.1,92,79,55,30.24,30.12,6,1,10,0.00
2013-7-16,96.0,80.5,65.1,77.5,70.6,62.7,93,75,47,30.20,30.11,6,2,12,0.00
2013-7-17,97.4,80.8,65.5,80.1,71.1,62.9,92,75,44,30.18,30.03,5,1,8,0.00
2013-7-18,97.7,83.0,70.3,81.3,74.6,67.5,92,78,50,30.06,29.94,7,1,12,0.00
2013-7-19,94.7,82.3,69.8,81.8,74.8,67.0,92,79,57,29.95,29.77,8,1,18,0.00
2013-7-20,91.5,79.7,71.2,78.0,72.6,68.4,92,80,54,29.82,29.71,11,2,16,0.00
2013-7-21,89.2,77.6,67.4,73.1,69.4,64.8,92,77,55,29.93,29.81,6,1,8,0.00
2013-7-22,87.8,74.9,66.6,77.6,70.4,64.2,92,86,66,29.93,29.76,6,1,8,0.24
2013-7-23,84.5,75.4,68.1,78.1,71.1,65.7,92,87,72,29.76,29.55,10,1,13,1.41
2013-7-24,82.1,71.4,61.2,70.4,63.3,53.6,93,77,54,29.93,29.61,9,3,13,0.01
2013-7-25,73.1,64.0,56.2,62.4,57.0,52.4,92,79,65,30.03,29.92,7,2,12,0.00
2013-7-26,82.9,68.3,56.1,66.6,59.8,53.8,93,76,48,30.04,29.98,7,1,9,0.00
2013-7-27,83.9,69.9,53.2,70.0,62.6,51.0,93,79,59,30.03,29.91,6,1,13,0.00
2013-7-28,79.0,69.2,63.1,73.0,66.5,61.0,93,91,79,29.96,29.86,6,1,13,0.87
2013-7-29,80.5,69.4,56.8,69.0,60.4,54.6,93,76,46,30.10,29.94,7,2,13,0.87
2013-7-30,80.7,65.5,51.3,64.3,57.8,49.0,93,78,50,30.17,30.09,7,1,10,0.01
2013-7-31,83.0,67.7,52.2,68.6,60.4,49.9,93,79,53,30.15,30.01,5,0,7,0.00
2013-8-1,68.9,66.4,62.3,67.0,64.0,59.9,93,92,91,30.01,29.81,9,1,17,0.53
2013-8-2,81.6,70.5,60.1,70.0,64.2,57.8,93,82,56,29.91,29.79,9,1,12,0.01
2013-8-3,76.4,66.5,58.7,70.1,63.1,56.0,93,89,76,29.90,29.83,9,1,13,0.13
2013-8-4,79.6,66.6,53.9,64.1,58.1,51.6,93,77,49,29.98,29.86,11,3,15,0.01
2013-8-5,80.0,63.4,48.4,64.1,54.3,46.5,94,76,41,30.07,29.97,8,1,12,0.00
2013-8-6,80.8,66.0,49.3,65.6,58.2,47.0,93,78,48,30.09,30.02,5,1,9,0.00
2013-8-7,76.4,69.8,64.4,70.5,66.2,61.7,93,89,76,30.10,30.01,6,1,12,0.22
2013-8-8,82.3,73.5,68.3,77.6,70.4,65.9,93,90,78,30.03,29.95,5,1,8,0.35
2013-8-9,84.7,75.6,69.5,78.2,72.3,67.2,93,90,76,29.97,29.77,8,1,13,0.26
2013-8-10,84.7,72.0,60.9,70.9,65.3,58.8,93,81,54,30.04,29.86,9,2,14,0.01
2013-8-11,81.5,67.8,54.0,70.1,61.0,51.9,94,81,54,30.12,30.00,9,1,10,0.00
2013-8-12,83.7,71.9,63.6,70.5,64.9,61.2,93,81,52,30.02,29.90,4,0,5,0.25
2013-8-13,81.7,70.3,63.3,72.8,66.3,60.9,93,88,68,29.91,29.67,17,1,24,1.11
2013-8-14,73.2,63.0,51.3,62.3,54.2,49.2,93,75,52,30.05,29.76,12,4,20,0.01
2013-8-15,79.8,61.2,44.3,61.4,52.6,42.4,94,77,39,30.14,30.05,8,1,12,0.00
2013-8-16,80.8,63.9,46.7,66.0,54.9,44.8,94,76,42,30.19,30.12,5,1,7,0.00
2013-8-17,84.2,65.9,48.9,67.9,58.0,47.0,93,78,43,30.26,30.19,4,0,6,0.01
2013-8-18,74.5,65.6,58.4,67.3,61.7,56.0,93,87,72,30.24,30.12,4,0,5,0.02
2013-8-19,75.0,65.7,56.6,67.3,61.4,54.0,93,87,66,30.13,30.02,5,0,9,0.01
2013-8-20,86.7,70.6,56.4,73.3,64.1,54.3,94,82,54,30.12,30.05,5,1,8,0.00
2013-8-21,87.2,71.0,56.1,74.6,63.8,53.9,93,80,51,30.17,30.03,5,0,8,0.01
2013-8-22,83.0,70.0,64.4,76.1,67.0,62.0,93,90,75,30.05,29.87,4,0,7,1.00
2013-8-23,81.3,69.4,58.6,67.3,62.2,56.3,94,80,50,30.09,29.88,8,1,12,0.85
2013-8-24,83.1,65.2,50.9,63.0,55.2,48.9,94,74,38,30.34,30.09,8,2,12,0.01
2013-8-25,80.9,62.6,46.0,64.9,54.9,44.1,94,79,45,30.40,30.23,6,1,8,0.01
2013-8-26,82.3,68.4,56.7,72.2,63.6,54.6,93,85,66,30.23,29.91,9,1,14,0.04
2013-8-27,90.6,76.2,66.9,75.6,68.8,64.8,93,79,54,29.91,29.83,8,2,12,0.02
2013-8-28,74.0,69.5,63.4,71.4,67.2,61.0,93,92,91,29.88,29.82,4,0,6,0.43
2013-8-29,82.8,70.9,64.9,74.0,67.4,62.5,93,89,69,30.00,29.87,5,1,9,0.01
2013-8-30,82.7,72.9,66.5,74.4,68.9,64.2,93,88,72,30.00,29.84,7,1,14,0.00
2013-8-31,86.2,75.2,65.3,77.9,71.2,63.0,93,88,73,29.85,29.76,7,1,10,0.00
2013-9-1,85.2,76.4,70.6,77.6,72.5,68.5,93,88,76,29.82,29.75,6,1,13,0.10
2013-9-2,77.9,71.3,68.1,73.5,68.8,65.7,94,92,84,29.78,29.68,11,0,15,0.79
2013-9-3,79.8,70.6,58.8,69.9,63.3,56.6,94,79,50,29.89,29.70,10,2,13,0.24
2013-9-4,80.8,66.0,56.1,64.7,59.0,54.1,94,80,49,30.00,29.88,10,2,13,0.01
2013-9-5,77.3,62.9,49.5,64.7,54.0,47.0,94,76,38,30.15,29.93,10,2,15,0.00
2013-9-6,73.5,55.8,41.0,54.7,46.0,39.4,94,74,34,30.25,30.13,7,1,8,0.01
2013-9-7,78.3,58.7,40.5,62.4,51.0,38.9,94,79,42,30.13,29.90,7,1,8,0.01
2013-9-8,81.1,65.8,49.4,67.6,57.6,46.9,94,77,39,30.07,29.82,12,3,18,0.00
2013-9-9,75.3,59.7,41.4,63.1,53.0,39.6,94,80,55,30.22,30.07,7,1,9,0.00
2013-9-10,87.0,73.8,65.0,77.4,69.2,61.0,93,86,71,30.14,30.03,6,1,10,0.00
2013-9-11,93.2,77.7,65.2,81.8,72.3,62.8,94,84,64,30.10,29.96,5,1,9,0.00
2013-9-12,85.8,72.6,66.3,78.0,69.3,63.8,93,90,73,29.97,29.67,15,1,23,0.39
2013-9-13,74.8,65.7,55.0,64.3,59.0,48.6,94,80,55,29.86,29.63,16,3,23,0.05
2013-9-14,64.5,54.9,40.9,51.3,47.2,38.8,93,76,59,30.14,29.86,16,4,20,0.00
2013-9-15,72.8,53.4,36.6,58.6,46.7,35.0,94,81,46,30.22,30.07,5,1,8,0.00
2013-9-16,71.4,58.9,50.3,60.1,53.0,46.8,94,82,55,30.25,30.02,8,2,14,0.05
2013-9-17,68.0,52.2,36.9,48.9,42.8,35.3,94,73,41,30.42,30.24,8,2,13,0.00
2013-9-18,72.5,51.3,33.9,55.0,43.4,32.0,94,78,45,30.35,30.18,7,1,9,0.00
2013-9-19,77.7,55.0,35.9,60.4,47.2,34.3,94,78,45,30.19,30.06,6,1,10,0.01
2013-9-20,80.7,60.0,41.7,64.8,53.2,39.9,94,81,46,30.08,29.95,6,1,9,0.00
2013-9-21,78.5,63.8,48.5,64.3,57.5,46.6,94,82,49,29.99,29.65,8,1,16,0.56
2013-9-22,68.3,60.1,52.7,60.0,50.9,42.8,94,74,47,29.92,29.65,13,4,18,0.16
2013-9-23,65.9,53.8,41.3,48.2,43.7,39.3,93,70,49,30.05,29.92,11,4,15,0.00
2013-9-24,76.3,52.5,33.7,50.9,43.5,32.0,94,76,37,30.06,29.89,10,2,14,0.00
2013-9-25,76.8,54.1,36.1,57.0,45.6,34.5,94,77,38,29.97,29.87,7,1,10,0.01
2013-9-26,74.3,55.4,39.5,61.3,49.6,37.9,94,83,51,30.09,29.93,6,1,10,0.00
2013-9-27,70.6,56.0,41.5,56.4,49.6,39.9,94,81,54,30.26,30.09,5,0,7,0.01
2013-9-28,74.1,59.6,46.4,57.6,51.5,44.5,94,78,46,30.31,30.23,9,1,10,0.00
2013-9-29,75.4,55.5,40.1,58.9,49.3,38.5,94,82,50,30.23,30.06,4,0,6,0.00
2013-9-30,74.7,55.1,40.0,59.1,48.3,38.4,94,80,48,30.08,29.96,5,0,8,0.01
2013-10-1,80.5,58.9,42.8,64.2,52.0,40.9,94,80,51,30.02,29.90,9,1,13,0.00
2013-10-2,83.5,62.3,44.4,65.1,55.0,42.5,94,80,50,30.02,29.92,14,2,20,0.01
2013-10-3,79.1,62.2,48.5,65.0,56.3,46.6,94,83,48,30.12,30.01,6,0,7,0.00
2013-10-4,85.0,66.7,54.0,69.7,60.8,52.0,94,83,57,30.05,29.95,8,1,13,0.00
2013-10-5,84.6,70.5,59.2,69.7,64.3,57.1,93,82,58,30.07,29.98,4,1,7,0.00
2013-10-6,69.5,66.4,63.7,66.7,64.1,61.3,93,92,90,30.05,29.97,5,2,12,0.07
2013-10-7,74.3,63.8,54.1,71.0,61.2,47.9,94,91,75,29.98,29.70,14,3,24,0.30
2013-10-8,67.7,53.4,40.7,51.6,46.0,39.1,94,79,48,30.32,29.99,8,2,13,0.00
2013-10-9,60.8,49.4,38.4,49.8,43.8,36.8,94,83,59,30.39,30.27,10,1,13,0.00
2013-10-10,57.8,53.7,48.9,52.6,49.6,45.8,92,86,79,30.27,30.06,9,3,12,0.07
2013-10-11,63.9,59.5,54.9,60.6,55.7,51.5,92,87,77,30.07,29.99,8,3,13,0.07
2013-10-12,75.0,63.9,53.5,57.3,50.5,37.6,93,65,29,30.24,30.05,9,3,21,0.00
2013-10-13,67.0,58.8,49.0,54.3,51.5,46.6,93,77,62,30.35,30.23,8,2,15,0.00
2013-10-14,71.7,53.8,39.4,53.2,46.6,37.8,94,79,46,30.35,30.21,4,0,7,0.00
2013-10-15,73.6,53.7,39.8,58.4,46.0,38.0,94,78,40,30.25,30.10,6,1,12,0.01
2013-10-16,65.4,55.6,42.4,58.7,52.1,40.3,93,88,74,30.10,29.90,5,0,7,0.00
2013-10-17,76.0,65.0,58.4,63.7,60.4,56.4,93,86,59,29.90,29.66,6,1,14,0.04
2013-10-18,65.8,56.6,38.9,62.4,46.3,36.9,93,70,48,29.98,29.67,18,5,25,0.09
2013-10-19,62.4,48.5,33.5,51.5,42.6,32.0,94,82,56,29.99,29.75,3,0,8,0.11
2013-10-20,62.6,49.3,34.4,49.7,40.1,32.6,93,73,38,30.07,29.76,12,3,18,0.00
2013-10-21,68.9,47.6,29.6,47.6,38.0,28.0,94,73,39,30.15,29.96,9,1,16,0.01
2013-10-22,62.6,49.6,34.7,51.6,42.7,32.0,94,78,47,29.96,29.75,12,2,16,0.00
2013-10-23,56.6,41.0,29.6,42.0,34.7,28.0,94,80,51,29.81,29.63,8,2,12,0.01
2013-10-24,52.9,41.9,32.8,37.3,32.1,27.0,93,71,41,30.02,29.78,13,4,20,0.00
2013-10-25,54.2,42.1,29.0,37.0,32.0,26.9,92,69,44,30.23,30.02,10,4,16,0.00
2013-10-26,55.2,39.8,23.0,36.4,29.9,21.0,94,71,42,30.23,29.89,18,1,20,0.00
2013-10-27,57.5,45.4,29.5,37.6,32.8,27.1,92,63,41,30.13,29.86,10,3,20,0.00
2013-10-28,61.3,38.0,23.4,38.9,30.9,22.0,94,79,40,30.31,30.12,9,1,14,0.00
2013-10-29,60.6,42.1,29.5,38.0,33.3,27.7,94,75,39,30.42,30.31,6,1,9,0.00
2013-10-30,58.2,45.2,29.1,50.3,41.1,27.0,94,86,74,30.35,30.17,5,0,6,0.00
2013-10-31,64.0,56.1,45.4,59.3,53.5,43.5,93,91,82,30.22,29.76,5,1,10,0.05
2013-11-1,69.9,61.1,42.8,63.7,55.3,40.9,93,82,54,29.76,29.50,12,3,26,0.23
2013-11-2,65.6,50.1,36.6,51.8,43.0,34.4,94,79,51,29.79,29.62,11,2,15,0.00
2013-11-3,51.3,41.0,25.8,42.6,31.0,19.8,94,70,40,30.46,29.79,15,5,21,0.01
2013-11-4,49.0,32.9,18.5,26.3,21.1,15.8,92,66,29,30.66,30.46,8,1,13,0.00
2013-11-5,56.0,42.3,25.6,42.6,35.3,22.8,93,77,56,30.65,30.46,8,1,12,0.00
2013-11-6,63.1,52.8,43.9,50.5,46.2,40.3,91,79,61,30.48,30.05,6,1,9,0.00
2013-11-7,58.7,49.8,36.7,55.8,46.0,31.8,93,87,69,30.05,29.76,15,3,20,0.12
2013-11-8,47.6,40.5,33.5,37.2,30.7,26.9,89,69,52,30.22,29.94,19,5,22,0.01
2013-11-9,50.7,39.0,25.3,35.0,29.4,22.5,93,70,43,30.30,29.97,10,1,13,0.00
2013-11-10,56.4,44.0,28.6,38.7,32.5,26.2,93,66,48,30.08,29.85,16,6,32,0.00
2013-11-11,54.0,42.8,32.6,36.0,29.7,25.0,75,60,48,30.21,29.95,16,4,23,0.00
2013-11-12,48.7,35.0,25.1,37.0,23.3,16.0,84,63,52,30.31,29.92,15,7,23,0.00
2013-11-13,40.8,27.6,21.0,21.0,17.2,14.0,84,67,38,30.39,30.28,18,4,20,0.00
2013-11-14,51.3,35.8,24.2,22.4,19.9,16.6,77,55,27,30.28,30.18,13,3,20,0.00
2013-11-15,56.7,35.7,21.2,32.6,23.8,16.8,88,66,28,30.25,30.15,8,1,12,0.00
2013-11-16,62.0,46.2,32.5,48.0,40.3,28.5,93,81,53,30.33,30.24,5,1,8,0.04
2013-11-17,63.4,54.9,47.7,58.5,52.5,45.8,93,91,84,30.25,29.74,7,2,13,0.03
2013-11-18,63.1,56.4,45.1,60.0,41.8,28.0,93,61,33,29.82,29.59,21,6,24,0.19
2013-11-19,46.9,40.4,30.9,30.8,26.0,21.9,70,56,47,30.36,29.81,19,8,26,0.00
2013-11-20,49.1,32.8,20.4,23.7,18.8,10.4,83,59,24,30.62,30.36,9,3,15,0.00
2013-11-21,50.6,35.8,16.8,40.4,28.5,13.9,91,76,56,30.61,30.38,7,1,12,0.00
2013-11-22,53.6,49.2,44.8,48.8,45.6,39.8,93,88,82,30.38,29.93,10,2,14,0.03
2013-11-23,51.6,38.9,26.3,47.6,26.5,8.0,88,62,44,30.09,29.92,27,8,35,0.01
2013-11-24,28.2,23.3,20.1,10.6,4.9,2.0,56,45,37,30.41,30.06,23,10,33,0.00
2013-11-25,34.7,26.5,16.3,18.4,13.3,7.0,81,58,45,30.50,30.32,10,3,13,0.00
2013-11-26,44.9,33.4,30.0,43.0,25.8,15.0,94,75,53,30.33,29.70,9,1,15,0.76
2013-11-27,57.4,41.6,31.0,55.3,37.8,20.3,94,87,63,29.80,29.39,18,7,26,0.99
2013-11-28,35.7,28.8,21.5,24.3,17.9,13.8,87,65,43,30.47,29.80,17,6,24,0.00
2013-11-29,37.7,27.9,18.6,25.5,21.0,14.0,92,76,56,30.74,30.46,10,2,13,0.00
2013-11-30,35.6,25.8,11.8,28.8,19.7,9.0,93,78,55,30.75,30.38,7,1,10,0.00
2013-12-1,46.9,33.5,21.5,34.0,27.6,-99.9,94,81,57,30.38,30.02,6,-3,8,0.00
2013-12-2,47.7,35.2,25.7,35.0,30.4,24.0,93,83,59,30.02,29.88,3,0,6,0.00
2013-12-3,51.9,35.8,26.0,39.0,30.7,24.0,94,83,54,30.02,29.88,6,1,11,0.00
2013-12-4,50.0,41.5,26.5,43.3,37.3,25.0,94,86,70,30.12,30.01,5,1,7,0.00
2013-12-5,54.7,50.3,46.1,52.7,48.3,43.3,94,93,89,30.10,29.92,4,1,7,0.03
2013-12-6,57.8,44.7,35.4,56.1,42.5,33.8,94,92,84,30.17,29.85,17,4,21,0.67
2013-12-7,38.4,32.0,22.7,33.8,27.7,20.3,94,84,66,30.52,30.09,12,4,16,0.02
2013-12-8,30.3,25.5,17.5,27.3,20.8,14.9,94,82,65,30.59,30.35,6,2,9,0.00
2013-12-9,34.8,32.8,28.8,33.2,31.3,27.3,95,94,94,30.35,29.98,7,2,10,0.36
2013-12-10,32.2,29.6,24.4,30.7,26.7,15.7,95,89,68,30.13,29.90,10,3,15,0.01
2013-12-11,31.5,24.3,16.4,18.5,15.9,10.7,90,71,55,30.34,30.13,11,3,16,0.00
2013-12-12,25.9,20.8,9.9,18.4,10.0,2.5,82,63,46,30.37,30.16,14,4,20,0.00
2013-12-13,33.9,20.8,2.9,20.0,12.8,-0.3,91,72,53,30.33,30.14,13,2,20,0.00
2013-12-14,29.6,24.3,21.2,28.1,20.8,18.9,94,87,78,30.46,29.76,8,3,12,0.00
2013-12-15,37.4,30.1,23.0,31.8,25.5,20.0,94,83,66,29.84,29.56,17,4,24,0.01
2013-12-16,29.9,20.8,6.5,22.2,10.2,2.8,89,65,45,30.23,29.84,15,4,22,0.00
2013-12-17,24.5,17.5,8.2,22.0,14.6,5.6,92,88,83,30.21,29.95,5,1,8,0.00
2013-12-18,35.7,20.6,3.1,24.3,15.0,0.0,94,80,60,30.20,29.95,16,3,21,0.00
2013-12-19,39.3,24.1,9.9,27.5,19.0,7.4,93,82,59,30.19,30.05,6,1,8,0.03
2013-12-20,50.2,34.8,24.0,36.6,29.3,21.8,93,82,54,30.12,29.97,4,1,6,0.24
2013-12-21,60.0,40.9,31.3,47.5,36.7,29.5,94,86,60,30.01,29.88,6,1,7,0.00
2013-12-22,67.0,58.7,41.6,61.2,55.6,40.0,94,90,80,29.94,29.78,9,2,16,0.03
2013-12-23,56.7,50.1,36.6,54.7,47.4,29.1,94,91,74,30.16,29.89,16,3,24,0.62
2013-12-24,38.1,31.7,22.2,29.7,23.1,12.9,90,71,61,30.38,30.11,18,6,26,0.00
2013-12-25,25.6,21.3,13.9,17.1,11.4,7.0,76,65,54,30.54,30.38,18,3,22,0.00
2013-12-26,32.9,24.7,16.9,28.1,20.9,14.0,93,85,72,30.42,30.18,9,2,12,0.02
2013-12-27,39.6,26.1,14.9,26.6,20.4,13.0,94,80,54,30.37,30.27,11,2,14,0.01
2013-12-28,52.2,31.0,16.0,33.0,24.1,14.0,94,79,43,30.29,30.08,12,2,16,0.00
2013-12-29,41.2,35.9,27.7,39.6,33.8,25.2,94,92,88,30.08,29.47,12,3,16,0.97
2013-12-30,42.7,33.0,19.5,37.3,27.0,12.7,94,79,66,30.17,29.72,14,5,22,0.00
2013-12-31,30.2,22.6,12.5,25.9,15.0,9.4,92,73,57,30.30,30.06,19,4,27,0.01
2014-1-1,31.7,25.0,14.0,23.3,18.0,9.0,89,75,62,30.41,30.22,9,1,13,0.00
2014-1-2,29.0,24.3,19.8,22.9,20.0,9.0,90,84,75,30.22,29.71,9,5,15,0.00